Time;durP1;ratioP1;P1;durP2;ratioP2;P2;SDS_P1;SDS_P2;PMS_P1;PMS_P2;Temp;Humidity;BMP_temperature;BMP_pressure;BME280_temperature;BME280_humidity;BME280_pressure;Samples;Min_cycle;Max_cycle;Signal;HPM_P1;HPM_P2
2023/10/07 00:09:57;;;;;;;11.98;5.50;;;16.00;25.50;;;;;;20288811;29;20469;-89
2023/10/07 00:19:58;;;;;;;14.52;6.03;;;15.90;37.40;;;;;;20269442;29;20396;-89
2023/10/07 00:30:00;;;;;;;10.00;5.20;;;15.80;57.10;;;;;;20271970;29;20067;-89
2023/10/07 00:40:14;;;;;;;10.90;5.22;;;15.80;67.80;;;;;;20289650;29;20052;-87
2023/10/07 00:50:15;;;;;;;15.02;5.57;;;15.80;70.70;;;;;;20291088;29;20679;-86
2023/10/07 01:10:24;;;;;;;17.17;6.50;;;15.70;93.30;;;;;;20288624;29;20060;-86
2023/10/07 01:20:34;;;;;;;13.73;5.78;;;15.80;92.90;;;;;;20265979;29;20048;-85
2023/10/07 01:30:35;;;;;;;20.25;6.63;;;15.70;99.90;;;;;;20271701;29;20061;-85
2023/10/07 01:50:53;;;;;;;13.50;5.40;;;15.90;99.90;;;;;;20277030;29;20055;-85
2023/10/07 02:00:57;;;;;;;14.95;5.07;;;15.90;99.90;;;;;;20267571;29;20051;-85
2023/10/07 02:10:58;;;;;;;12.48;4.82;;;16.00;99.90;;;;;;20263244;29;20119;-85
2023/10/07 02:21:08;;;;;;;12.23;4.82;;;16.30;99.90;;;;;;20266905;29;20048;-84
2023/10/07 02:31:08;;;;;;;12.32;4.70;;;16.30;99.90;;;;;;20265505;29;20139;-88
2023/10/07 02:41:17;;;;;;;13.60;4.23;;;16.70;99.90;;;;;;20261899;29;20060;-85
2023/10/07 02:51:18;;;;;;;11.15;4.90;;;16.80;96.60;;;;;;20271385;29;20060;-84
2023/10/07 03:01:25;;;;;;;15.38;4.72;;;16.80;95.70;;;;;;20281146;29;20048;-84
2023/10/07 03:11:40;;;;;;;15.20;4.53;;;16.90;96.70;;;;;;20277088;29;20047;-84
2023/10/07 03:41:47;;;;;;;12.07;4.63;;;17.20;77.90;;;;;;20296683;29;20051;-84
2023/10/07 03:51:48;;;;;;;12.35;4.07;;;17.30;65.40;;;;;;20328332;29;20392;-84
2023/10/07 04:01:53;;;;;;;14.57;4.07;;;17.30;55.00;;;;;;20375714;29;20060;-85
2023/10/07 04:11:54;;;;;;;13.52;3.95;;;17.30;59.60;;;;;;20352658;29;20059;-84
2023/10/07 04:21:55;;;;;;;13.27;3.63;;;17.40;50.10;;;;;;20284942;29;20048;-84
2023/10/07 04:31:57;;;;;;;15.45;3.92;;;17.50;44.00;;;;;;20271986;29;20496;-84
2023/10/07 04:42:03;;;;;;;12.05;3.72;;;17.40;48.80;;;;;;20274003;29;20040;-87
2023/10/07 04:52:07;;;;;;;15.05;4.32;;;17.50;44.40;;;;;;20267067;29;20052;-86
2023/10/07 05:02:10;;;;;;;10.88;3.50;;;17.30;64.70;;;;;;20276165;29;20048;-85
2023/10/07 05:12:10;;;;;;;12.02;3.92;;;17.40;48.00;;;;;;20273734;29;20056;-86
2023/10/07 05:22:14;;;;;;;11.43;3.40;;;17.40;54.20;;;;;;20273023;29;20063;-87
2023/10/07 05:32:17;;;;;;;13.65;3.85;;;17.20;64.70;;;;;;20277168;29;21566;-85
2023/10/07 05:42:20;;;;;;;16.40;4.00;;;17.40;64.80;;;;;;20269921;29;20063;-86
2023/10/07 05:52:20;;;;;;;15.05;3.65;;;17.40;53.30;;;;;;20267275;29;20059;-83
2023/10/07 06:02:21;;;;;;;15.88;3.47;;;17.40;52.80;;;;;;20264602;29;20096;-84
2023/10/07 06:12:22;;;;;;;11.10;3.65;;;17.50;44.30;;;;;;20259985;29;20044;-84
2023/10/07 06:22:23;;;;;;;7.47;3.25;;;17.50;44.30;;;;;;20284804;29;20138;-83
2023/10/07 06:32:25;;;;;;;12.35;3.72;;;17.40;43.30;;;;;;20291398;29;20052;-84
2023/10/07 06:42:27;;;;;;;8.60;4.20;;;17.30;44.00;;;;;;20292616;29;20052;-83
2023/10/07 06:52:27;;;;;;;11.90;4.40;;;17.40;48.30;;;;;;20273870;29;20175;-83
2023/10/07 07:02:35;;;;;;;14.15;5.38;;;17.40;56.90;;;;;;20275752;29;20420;-84
2023/10/07 07:12:35;;;;;;;;;;;17.30;75.90;;;;;;20289871;29;20507;-83
2023/10/07 07:22:43;;;;;;;14.93;4.90;;;17.30;85.90;;;;;;20285182;29;19943;-84
2023/10/07 07:32:44;;;;;;;22.55;5.88;;;17.60;74.20;;;;;;20285117;29;21032;-84
2023/10/07 07:42:55;;;;;;;20.27;5.50;;;17.80;57.10;;;;;;20263587;29;20047;-83
2023/10/07 07:52:55;;;;;;;14.50;5.00;;;17.70;61.00;;;;;;20256957;29;20135;-83
2023/10/07 08:02:58;;;;;;;22.23;5.05;;;17.90;50.80;;;;;;20277662;29;20055;-85
2023/10/07 08:12:59;;;;;;;15.00;5.90;;;18.10;40.10;;;;;;20261889;29;20051;-83
2023/10/07 08:23:08;;;;;;;12.57;3.90;;;18.30;36.70;;;;;;20273473;29;20052;-84
2023/10/07 08:33:12;;;;;;;12.25;3.75;;;18.70;9.30;;;;;;20280123;29;20048;-83
2023/10/07 08:43:19;;;;;;;13.63;3.15;;;18.90;1.00;;;;;;20291654;29;20068;-83
2023/10/07 08:53:23;;;;;;;12.80;4.07;;;19.00;1.00;;;;;;20277621;29;20663;-83
2023/10/07 09:03:29;;;;;;;13.07;3.58;;;19.20;1.00;;;;;;20280258;29;20135;-82
2023/10/07 09:13:31;;;;;;;15.63;3.67;;;19.30;1.00;;;;;;20274855;29;20040;-84
2023/10/07 09:23:36;;;;;;;11.40;3.83;;;19.50;1.00;;;;;;20268274;29;20055;-84
2023/10/07 09:33:37;;;;;;;13.45;3.80;;;19.60;1.00;;;;;;20236712;29;20548;-84
2023/10/07 09:43:47;;;;;;;14.32;3.97;;;19.70;1.00;;;;;;20241203;29;20581;-84
2023/10/07 09:54:16;;;;;;;11.93;3.83;;;19.80;1.00;;;;;;20216878;29;20256;-82
2023/10/07 10:04:50;;;;;;;13.15;4.03;;;20.10;1.00;;;;;;20250168;29;20048;-82
2023/10/07 10:15:08;;;;;;;15.10;3.80;;;20.00;1.00;;;;;;20231593;29;20048;-83
2023/10/07 10:25:25;;;;;;;16.70;4.30;;;20.00;1.00;;;;;;20168086;29;20049;-84
2023/10/07 10:35:27;;;;;;;18.27;4.63;;;20.20;1.00;;;;;;20227146;29;20447;-85
2023/10/07 10:45:30;;;;;;;13.07;3.70;;;20.20;1.00;;;;;;20205787;29;20089;-84
2023/10/07 10:55:34;;;;;;;13.65;4.15;;;20.60;1.00;;;;;;20208957;29;20513;-84
2023/10/07 11:05:35;;;;;;;16.60;4.28;;;21.10;1.00;;;;;;20193278;29;20045;-83
2023/10/07 11:15:35;;;;;;;10.17;3.50;;;21.20;1.00;;;;;;20189034;29;20051;-83
2023/10/07 11:25:40;;;;;;;10.10;3.58;;;21.50;1.00;;;;;;20241945;29;20167;-84
2023/10/07 11:35:42;;;;;;;11.93;3.95;;;21.60;1.00;;;;;;20267592;29;20063;-85
2023/10/07 11:45:44;;;;;;;9.05;3.42;;;21.70;1.00;;;;;;20261464;29;20048;-86
2023/10/07 11:55:44;;;;;;;9.05;3.67;;;21.70;1.00;;;;;;20218569;29;20419;-84
2023/10/07 12:05:46;;;;;;;13.07;3.40;;;22.10;1.00;;;;;;20234879;29;20039;-84
2023/10/07 12:15:47;;;;;;;11.55;3.70;;;21.70;1.00;;;;;;20242712;29;20441;-86
2023/10/07 12:25:47;;;;;;;12.27;4.28;;;21.40;1.00;;;;;;20239403;29;20056;-86
2023/10/07 12:35:48;;;;;;;11.27;3.80;;;21.20;1.00;;;;;;20247288;29;20100;-85
2023/10/07 12:45:48;;;;;;;10.13;4.00;;;21.00;1.00;;;;;;20256079;29;20098;-85
2023/10/07 12:55:50;;;;;;;12.77;4.40;;;20.80;1.00;;;;;;20273517;29;20053;-83
2023/10/07 13:05:54;;;;;;;11.52;5.13;;;20.60;1.00;;;;;;20267512;29;20047;-83
2023/10/07 13:15:56;;;;;;;8.57;3.90;;;20.50;1.00;;;;;;20271299;29;20478;-80
2023/10/07 13:25:58;;;;;;;10.75;4.35;;;20.40;1.00;;;;;;20273970;29;20062;-83
2023/10/07 13:35:58;;;;;;;8.90;3.95;;;20.40;1.00;;;;;;20291050;29;20047;-83
2023/10/07 13:46:03;;;;;;;13.45;4.47;;;20.40;1.00;;;;;;20291120;29;20369;-83
2023/10/07 13:56:12;;;;;;;9.95;4.28;;;20.40;1.00;;;;;;20285938;29;20158;-83
2023/10/07 14:06:12;;;;;;;13.85;4.97;;;20.30;1.00;;;;;;20286599;29;20044;-82
2023/10/07 14:16:20;;;;;;;12.32;4.55;;;20.30;1.00;;;;;;20279652;29;20052;-85
2023/10/07 14:26:22;;;;;;;11.18;4.45;;;20.40;1.00;;;;;;20291158;29;20480;-85
2023/10/07 14:36:22;;;;;;;15.35;5.03;;;20.60;1.00;;;;;;20283436;29;20052;-85
2023/10/07 14:46:25;;;;;;;12.13;4.53;;;20.60;1.00;;;;;;20368455;29;20048;-84
2023/10/07 14:56:26;;;;;;;15.57;4.63;;;20.30;1.00;;;;;;20349206;29;20048;-84
2023/10/07 15:06:27;;;;;;;15.48;5.00;;;20.30;1.00;;;;;;20361578;29;20049;-89
2023/10/07 15:16:27;;;;;;;13.93;4.35;;;20.20;1.00;;;;;;20265719;29;20060;-85
2023/10/07 15:26:29;;;;;;;14.85;4.75;;;20.30;1.00;;;;;;20270927;29;20100;-84
2023/10/07 15:36:30;;;;;;;14.93;4.60;;;20.20;1.00;;;;;;20269021;29;20044;-85
2023/10/07 15:46:31;;;;;;;13.13;4.22;;;20.10;1.00;;;;;;20282013;29;20040;-85
2023/10/07 15:56:32;;;;;;;16.50;5.38;;;20.00;1.00;;;;;;20247469;29;20044;-85
2023/10/07 16:06:32;;;;;;;15.32;4.70;;;19.80;1.00;;;;;;20263597;29;20420;-84
2023/10/07 16:16:33;;;;;;;13.13;4.55;;;19.70;1.00;;;;;;20259202;29;20523;-85
2023/10/07 16:26:34;;;;;;;15.07;4.90;;;19.70;1.00;;;;;;20240070;29;20044;-85
2023/10/07 16:36:35;;;;;;;16.15;4.45;;;19.60;1.00;;;;;;20245974;29;20138;-86
2023/10/07 16:46:35;;;;;;;14.85;4.60;;;19.50;1.00;;;;;;20262681;29;20040;-84
2023/10/07 16:56:36;;;;;;;13.75;4.78;;;19.50;1.00;;;;;;20252386;29;20798;-85
2023/10/07 17:06:37;;;;;;;13.77;4.10;;;19.50;1.00;;;;;;20252022;29;20127;-83
2023/10/07 17:16:38;;;;;;;11.18;4.43;;;19.40;1.00;;;;;;20258432;29;20650;-84
2023/10/07 17:26:39;;;;;;;15.63;4.97;;;19.40;1.00;;;;;;20271696;29;20044;-84
2023/10/07 17:36:39;;;;;;;14.95;5.10;;;19.30;1.00;;;;;;20258759;29;20481;-85
2023/10/07 17:46:41;;;;;;;15.68;5.20;;;19.40;1.00;;;;;;20257069;29;20408;-84
2023/10/07 17:56:43;;;;;;;14.82;4.78;;;19.20;1.00;;;;;;20265938;29;20060;-83
2023/10/07 18:06:44;;;;;;;16.25;4.57;;;19.20;1.00;;;;;;20249834;29;20046;-83
2023/10/07 18:16:45;;;;;;;11.80;4.07;;;19.00;1.00;;;;;;20249371;29;20044;-83
2023/10/07 18:26:45;;;;;;;19.15;5.15;;;19.10;1.00;;;;;;20265503;29;20052;-83
2023/10/07 18:36:46;;;;;;;19.30;5.22;;;19.00;1.00;;;;;;20258483;29;20056;-83
2023/10/07 18:46:47;;;;;;;15.25;5.10;;;18.90;1.00;;;;;;20259571;29;20187;-87
2023/10/07 18:56:47;;;;;;;15.88;5.43;;;19.00;1.00;;;;;;20263826;29;20197;-85
2023/10/07 19:06:48;;;;;;;18.02;5.57;;;18.90;1.00;;;;;;20265450;29;20051;-86
2023/10/07 19:16:49;;;;;;;13.70;4.60;;;19.00;1.00;;;;;;20262791;29;20516;-86
2023/10/07 19:26:50;;;;;;;18.45;4.88;;;18.80;1.00;;;;;;20265553;29;20032;-86
2023/10/07 19:36:50;;;;;;;19.27;4.88;;;18.70;1.00;;;;;;20281554;29;20088;-84
2023/10/07 19:46:51;;;;;;;14.57;4.95;;;18.80;1.00;;;;;;20265932;29;20040;-85
2023/10/07 19:56:52;;;;;;;24.85;5.30;;;18.70;1.00;;;;;;20263922;29;20074;-83
2023/10/07 20:06:53;;;;;;;12.60;4.88;;;18.70;1.00;;;;;;20258758;29;20075;-82
2023/10/07 20:16:54;;;;;;;12.73;5.18;;;18.70;1.00;;;;;;20250938;29;20580;-83
2023/10/07 20:26:55;;;;;;;22.08;5.30;;;18.60;1.00;;;;;;20247597;29;20059;-83
2023/10/07 20:36:55;;;;;;;22.02;6.35;;;18.60;1.00;;;;;;20243656;29;20052;-84
2023/10/07 20:46:56;;;;;;;23.83;5.90;;;18.50;1.00;;;;;;20254452;29;20492;-84
2023/10/07 20:56:59;;;;;;;19.77;4.78;;;18.60;1.00;;;;;;20256798;29;20529;-84
2023/10/07 21:07:00;;;;;;;17.92;5.07;;;18.70;1.00;;;;;;20247990;29;20099;-83
2023/10/07 21:17:01;;;;;;;16.65;5.00;;;18.70;1.00;;;;;;20246214;29;20048;-84
2023/10/07 21:27:02;;;;;;;18.73;4.88;;;18.80;1.00;;;;;;20258324;29;20119;-84
2023/10/07 21:37:02;;;;;;;20.15;5.30;;;18.80;1.00;;;;;;20240875;29;20067;-84
2023/10/07 21:47:03;;;;;;;21.60;5.65;;;18.70;1.00;;;;;;20254734;29;20390;-83
2023/10/07 21:57:04;;;;;;;19.45;4.95;;;18.70;1.00;;;;;;20236903;29;20100;-84
2023/10/07 22:07:07;;;;;;;18.38;4.47;;;18.70;1.00;;;;;;20261543;29;20040;-84
2023/10/07 22:17:07;;;;;;;17.45;5.25;;;18.50;1.00;;;;;;20253527;29;20132;-83
2023/10/07 22:27:08;;;;;;;19.52;5.70;;;18.40;5.20;;;;;;20266455;29;20048;-84
2023/10/07 22:37:17;;;;;;;15.95;4.70;;;18.40;5.70;;;;;;20271911;29;20059;-83
2023/10/07 22:47:17;;;;;;;23.00;5.63;;;18.30;13.90;;;;;;20244196;29;20075;-83
2023/10/07 22:57:18;;;;;;;16.60;4.75;;;18.50;12.70;;;;;;20268522;29;20056;-83
2023/10/07 23:07:25;;;;;;;13.90;4.07;;;18.40;12.60;;;;;;20265828;29;20415;-83
2023/10/07 23:17:30;;;;;;;18.17;5.33;;;18.20;24.50;;;;;;20276664;29;20047;-84
2023/10/07 23:27:31;;;;;;;17.67;5.07;;;18.20;32.20;;;;;;20290607;29;20127;-83
2023/10/07 23:37:31;;;;;;;20.65;5.70;;;18.10;35.80;;;;;;20271275;29;20100;-84
2023/10/07 23:47:33;;;;;;;15.77;4.75;;;18.00;43.90;;;;;;20265661;29;20040;-84
2023/10/07 23:57:38;;;;;;;16.83;5.70;;;18.00;47.70;;;;;;20272633;29;20036;-84
